Time;durP1;ratioP1;P1;durP2;ratioP2;P2;SDS_P1;SDS_P2;PMS_P1;PMS_P2;Temp;Humidity;BMP_temperature;BMP_pressure;BME280_temperature;BME280_humidity;BME280_pressure;Samples;Min_cycle;Max_cycle;Signal;HPM_P1;HPM_P2
2022/03/11 04:02:47;;;;;;;2.30;2.10;;;5.80;57.70;;;;;;5056635;23;20496;-69
2022/03/11 04:05:14;;;;;;;2.00;1.90;;;5.80;57.60;;;;;;4994964;28;20473;-69
2022/03/11 04:07:41;;;;;;;1.93;1.83;;;5.90;57.60;;;;;;4994695;28;20967;-69
2022/03/11 04:10:09;;;;;;;2.20;2.10;;;5.90;57.40;;;;;;4994726;28;20440;-69
2022/03/11 04:12:36;;;;;;;2.10;2.00;;;5.80;57.40;;;;;;4976732;28;20470;-69
2022/03/11 04:15:03;;;;;;;2.10;2.00;;;5.80;57.50;;;;;;5006099;23;20524;-70
2022/03/11 04:17:29;;;;;;;1.90;1.80;;;5.80;57.50;;;;;;4994570;28;20445;-71
2022/03/11 04:19:58;;;;;;;1.83;1.73;;;5.80;57.50;;;;;;4994401;28;20449;-70
2022/03/11 04:22:24;;;;;;;2.07;1.97;;;5.80;57.30;;;;;;4994354;28;20445;-71
2022/03/11 04:24:51;;;;;;;2.10;2.00;;;5.60;57.70;;;;;;4989149;28;20486;-71
2022/03/11 04:27:18;;;;;;;2.27;2.17;;;5.50;57.80;;;;;;4975087;28;20813;-71
2022/03/11 04:29:45;;;;;;;2.07;1.97;;;5.50;57.90;;;;;;4974914;28;20481;-70
2022/03/11 04:32:11;;;;;;;1.93;1.83;;;5.50;58.00;;;;;;4974995;28;20454;-71
2022/03/11 04:34:38;;;;;;;2.03;1.93;;;5.50;58.00;;;;;;4974834;28;20489;-71
2022/03/11 04:37:07;;;;;;;1.90;1.80;;;5.40;58.10;;;;;;4975354;28;20442;-71
2022/03/11 04:39:34;;;;;;;2.50;2.40;;;5.40;58.20;;;;;;4974571;28;20969;-70
2022/03/11 04:42:00;;;;;;;2.10;2.00;;;5.40;58.20;;;;;;4979151;28;20458;-70
2022/03/11 04:44:27;;;;;;;2.07;1.97;;;5.30;58.20;;;;;;4978691;28;20485;-71
2022/03/11 04:46:54;;;;;;;2.10;2.00;;;5.30;58.40;;;;;;4979835;28;20453;-70
2022/03/11 04:49:20;;;;;;;1.80;1.70;;;5.30;58.70;;;;;;4978798;28;20457;-71
2022/03/11 04:51:47;;;;;;;2.00;1.90;;;5.30;58.60;;;;;;4978618;28;20512;-70
2022/03/11 04:54:15;;;;;;;2.00;1.90;;;5.20;58.60;;;;;;4979397;28;20445;-72
2022/03/11 04:56:42;;;;;;;2.10;2.00;;;5.20;58.70;;;;;;4978925;28;20461;-71
2022/03/11 04:59:09;;;;;;;2.50;2.40;;;5.20;58.60;;;;;;4979081;28;20450;-70
2022/03/11 05:01:35;;;;;;;2.03;1.93;;;5.10;58.70;;;;;;4978289;28;20438;-70
2022/03/11 05:04:02;;;;;;;1.70;1.60;;;5.10;58.60;;;;;;4978089;28;20552;-70
2022/03/11 05:06:29;;;;;;;2.20;2.10;;;5.10;58.70;;;;;;4977935;28;20561;-70
2022/03/11 05:08:56;;;;;;;2.53;2.43;;;5.10;58.90;;;;;;4978028;28;20450;-70
2022/03/11 05:11:24;;;;;;;2.33;2.23;;;5.00;58.90;;;;;;4978054;28;20454;-70
2022/03/11 05:13:50;;;;;;;2.50;2.40;;;5.00;59.10;;;;;;4977969;28;20442;-70
2022/03/11 05:16:17;;;;;;;2.17;2.07;;;5.00;59.00;;;;;;4977488;28;20513;-70
2022/03/11 05:18:44;;;;;;;1.97;1.87;;;5.00;58.90;;;;;;4977953;28;20454;-70
2022/03/11 05:21:10;;;;;;;3.30;2.07;;;5.00;58.90;;;;;;4977792;28;20504;-70
2022/03/11 05:23:37;;;;;;;2.30;2.20;;;5.00;58.90;;;;;;4977689;28;20442;-70
2022/03/11 05:26:04;;;;;;;2.13;2.03;;;4.90;59.00;;;;;;4977625;28;20497;-70
2022/03/11 05:28:32;;;;;;;2.20;2.10;;;4.90;58.90;;;;;;4977686;28;20508;-70
2022/03/11 05:30:58;;;;;;;2.10;2.00;;;4.90;58.90;;;;;;4977688;28;20454;-70
2022/03/11 05:33:25;;;;;;;2.50;2.40;;;4.80;58.80;;;;;;4977688;28;20524;-70
2022/03/11 05:35:51;;;;;;;2.00;1.90;;;4.80;58.90;;;;;;4977548;28;20810;-70
2022/03/11 05:38:19;;;;;;;2.37;2.27;;;4.90;58.90;;;;;;4977193;28;20865;-70
2022/03/11 05:40:46;;;;;;;2.23;2.13;;;4.80;58.90;;;;;;4977443;28;20461;-70
2022/03/11 05:43:13;;;;;;;2.30;2.20;;;4.90;58.80;;;;;;4977067;28;20814;-70
2022/03/11 05:45:41;;;;;;;2.50;2.40;;;4.90;58.60;;;;;;4977255;28;20520;-70
2022/03/11 05:48:09;;;;;;;4.90;2.17;;;4.90;58.50;;;;;;4977269;28;20505;-70
2022/03/11 05:50:35;;;;;;;2.13;2.03;;;4.90;58.50;;;;;;4977099;28;20452;-70
2022/03/11 05:53:02;;;;;;;2.43;2.33;;;4.90;58.40;;;;;;4977131;28;20449;-70
2022/03/11 05:55:29;;;;;;;2.00;1.90;;;4.90;58.60;;;;;;4977112;28;20466;-71
2022/03/11 05:57:55;;;;;;;2.37;2.27;;;4.90;58.30;;;;;;4977167;28;20458;-70
2022/03/11 06:00:22;;;;;;;2.63;2.53;;;5.10;58.10;;;;;;4976860;28;20872;-70
2022/03/11 06:02:50;;;;;;;2.20;2.10;;;5.30;57.60;;;;;;4977071;28;20450;-70
2022/03/11 06:05:17;;;;;;;2.20;2.10;;;5.40;57.40;;;;;;4976884;28;20490;-71
2022/03/11 06:07:43;;;;;;;2.13;2.03;;;5.50;57.00;;;;;;4977031;28;20450;-70
2022/03/11 06:10:10;;;;;;;2.10;2.00;;;5.70;56.40;;;;;;4977000;28;20500;-70
2022/03/11 06:12:37;;;;;;;2.60;2.40;;;5.70;56.30;;;;;;4976583;28;20949;-70
2022/03/11 06:15:08;;;;;;;2.23;2.13;;;5.80;56.20;;;;;;4977020;28;20481;-71
2022/03/11 06:17:35;;;;;;;2.17;2.07;;;6.00;55.80;;;;;;4977956;28;20533;-69
2022/03/11 06:20:04;;;;;;;2.13;2.03;;;6.20;55.30;;;;;;4977103;28;20481;-70
2022/03/11 06:22:31;;;;;;;2.30;2.20;;;6.60;54.80;;;;;;4977115;28;20465;-71
2022/03/11 06:24:59;;;;;;;2.17;2.07;;;7.00;53.70;;;;;;4976674;28;20497;-70
2022/03/11 06:27:26;;;;;;;2.30;2.20;;;7.30;52.60;;;;;;4977116;28;20541;-70
2022/03/11 06:29:53;;;;;;;2.30;2.20;;;7.70;52.00;;;;;;4976966;28;20446;-71
2022/03/11 06:32:20;;;;;;;2.17;2.07;;;8.30;51.10;;;;;;4976758;28;20964;-71
2022/03/11 06:34:48;;;;;;;2.00;1.90;;;9.20;49.50;;;;;;4976505;28;20884;-71
2022/03/11 06:37:17;;;;;;;2.10;2.00;;;10.50;47.20;;;;;;4976720;28;20438;-70
2022/03/11 06:39:44;;;;;;;2.00;1.90;;;12.00;44.60;;;;;;4976831;28;20460;-72
2022/03/11 06:42:10;;;;;;;1.97;1.80;;;13.30;41.70;;;;;;4976794;28;20473;-71
2022/03/11 06:44:37;;;;;;;1.70;1.60;;;13.90;39.70;;;;;;4976754;28;20488;-70
2022/03/11 06:47:05;;;;;;;2.00;1.90;;;14.20;38.80;;;;;;4976737;28;20509;-72
2022/03/11 06:49:31;;;;;;;2.50;2.40;;;15.20;37.70;;;;;;4976603;28;20454;-72
2022/03/11 06:51:58;;;;;;;2.17;2.07;;;16.00;36.50;;;;;;4976447;28;20450;-72
2022/03/11 06:54:26;;;;;;;2.13;2.03;;;16.70;35.10;;;;;;4976246;28;20461;-72
2022/03/11 06:56:53;;;;;;;2.27;2.07;;;16.90;34.10;;;;;;4976214;28;20945;-71
2022/03/11 06:59:20;;;;;;;1.90;1.80;;;17.40;33.50;;;;;;4975984;28;20804;-71
2022/03/11 07:01:46;;;;;;;1.60;1.50;;;17.50;32.40;;;;;;4975609;28;20941;-71
2022/03/11 07:04:13;;;;;;;1.60;1.50;;;17.80;33.10;;;;;;4975194;28;20454;-70
2022/03/11 07:06:40;;;;;;;2.23;2.13;;;18.60;32.20;;;;;;4975963;28;20505;-71
2022/03/11 07:09:06;;;;;;;1.63;1.53;;;19.00;30.90;;;;;;4976212;28;20449;-73
2022/03/11 07:11:35;;;;;;;1.67;1.57;;;19.10;30.60;;;;;;4976043;28;20973;-72
2022/03/11 07:14:02;;;;;;;1.50;1.40;;;19.10;30.30;;;;;;4976308;28;20462;-72
2022/03/11 07:16:29;;;;;;;1.70;1.60;;;18.90;30.20;;;;;;4975732;28;20481;-71
2022/03/11 07:18:55;;;;;;;1.50;1.40;;;18.80;29.90;;;;;;4976396;28;20462;-71
2022/03/11 07:21:22;;;;;;;1.77;1.67;;;19.10;30.60;;;;;;4976837;28;20453;-72
2022/03/11 07:23:54;;;;;;;1.53;1.43;;;20.50;29.20;;;;;;4977105;28;20461;-72
2022/03/11 07:26:21;;;;;;;1.47;1.37;;;21.00;28.30;;;;;;4976480;28;20528;-72
2022/03/11 07:28:49;;;;;;;1.63;1.53;;;21.20;27.60;;;;;;4976455;28;20832;-72
2022/03/11 07:31:16;;;;;;;2.07;1.97;;;21.10;28.00;;;;;;4976773;28;20462;-72
2022/03/11 07:33:42;;;;;;;1.60;1.50;;;21.10;28.10;;;;;;4976556;28;20445;-72
2022/03/11 07:36:09;;;;;;;1.83;1.73;;;21.30;28.30;;;;;;4976588;28;20547;-71
2022/03/11 07:38:36;;;;;;;1.60;1.50;;;22.40;27.40;;;;;;4976611;28;20450;-72
2022/03/11 07:41:03;;;;;;;1.87;1.77;;;22.30;26.90;;;;;;4976883;28;20462;-73
2022/03/11 07:43:30;;;;;;;2.07;1.30;;;21.90;27.00;;;;;;4976575;28;20755;-72
2022/03/11 07:45:58;;;;;;;1.90;1.80;;;21.40;27.20;;;;;;4976772;28;20501;-71
2022/03/11 07:48:25;;;;;;;1.70;1.60;;;20.50;28.00;;;;;;4977542;28;20521;-72
2022/03/11 07:50:51;;;;;;;1.70;1.60;;;19.30;29.30;;;;;;4977038;28;20496;-71
2022/03/11 07:53:18;;;;;;;1.43;1.20;;;18.00;30.70;;;;;;4976544;28;20457;-72
2022/03/11 07:55:45;;;;;;;1.60;1.50;;;17.00;32.20;;;;;;4977149;28;20478;-71
2022/03/11 07:58:11;;;;;;;1.70;1.60;;;16.40;33.00;;;;;;4979630;28;20460;-70
2022/03/11 08:00:41;;;;;;;1.80;1.70;;;15.60;34.20;;;;;;4986448;28;20968;-70
2022/03/11 08:03:09;;;;;;;1.70;1.60;;;14.90;35.60;;;;;;4985389;28;20459;-71
2022/03/11 08:05:36;;;;;;;1.67;1.57;;;14.50;36.00;;;;;;4975640;28;20553;-71
2022/03/11 08:08:03;;;;;;;1.60;1.50;;;13.70;37.20;;;;;;4975762;28;20466;-71
2022/03/11 08:10:33;;;;;;;2.20;1.83;;;13.50;37.50;;;;;;4975278;28;20454;-71
2022/03/11 08:13:00;;;;;;;1.87;1.77;;;13.20;38.70;;;;;;4975014;28;20818;-72
2022/03/11 08:15:27;;;;;;;1.63;1.53;;;12.90;38.80;;;;;;4974549;28;20482;-71
2022/03/11 08:17:54;;;;;;;1.90;1.80;;;12.50;39.70;;;;;;4975285;28;20454;-71
2022/03/11 08:20:22;;;;;;;1.57;1.47;;;12.00;40.30;;;;;;4974832;28;20833;-71
2022/03/11 08:22:50;;;;;;;1.90;1.80;;;11.30;42.20;;;;;;4974737;28;20956;-72
2022/03/11 08:25:17;;;;;;;2.07;1.97;;;11.20;42.30;;;;;;4975288;28;20490;-71
2022/03/11 08:27:44;;;;;;;1.93;1.83;;;10.80;42.90;;;;;;4975071;28;20480;-71
2022/03/11 08:30:12;;;;;;;1.70;1.60;;;10.50;43.30;;;;;;4974932;28;20840;-71
2022/03/11 08:32:40;;;;;;;1.60;1.50;;;10.20;44.60;;;;;;4974922;28;20465;-71
2022/03/11 08:35:09;;;;;;;1.90;1.80;;;9.60;45.80;;;;;;4974675;28;20473;-70
2022/03/11 08:37:37;;;;;;;1.50;1.40;;;9.50;45.90;;;;;;4974889;28;20453;-71
2022/03/11 08:40:05;;;;;;;2.03;1.93;;;9.30;46.20;;;;;;4975194;28;20446;-71
2022/03/11 08:42:32;;;;;;;1.70;1.60;;;9.20;46.10;;;;;;4974321;28;21016;-71
2022/03/11 08:45:00;;;;;;;1.90;1.80;;;8.80;47.10;;;;;;4974635;28;20481;-71
2022/03/11 08:47:27;;;;;;;1.87;1.77;;;8.90;47.00;;;;;;4974652;28;20454;-71
2022/03/11 08:49:53;;;;;;;1.63;1.53;;;8.80;47.60;;;;;;4974513;28;20450;-72
2022/03/11 08:52:21;;;;;;;2.20;2.10;;;9.00;47.70;;;;;;4974445;28;20450;-71
2022/03/11 08:54:49;;;;;;;1.93;1.83;;;9.10;47.40;;;;;;4974371;28;20466;-70
2022/03/11 08:57:15;;;;;;;1.90;1.80;;;9.30;47.20;;;;;;4974412;28;20442;-69
2022/03/11 08:59:42;;;;;;;1.80;1.70;;;9.30;46.90;;;;;;4974402;28;20513;-69
2022/03/11 09:02:09;;;;;;;2.27;1.80;;;9.30;47.40;;;;;;4974360;28;20446;-71
2022/03/11 09:04:36;;;;;;;1.73;1.63;;;9.20;47.40;;;;;;4974316;28;20854;-71
2022/03/11 09:07:04;;;;;;;1.87;1.77;;;9.10;47.50;;;;;;4974478;28;20511;-71
2022/03/11 09:09:32;;;;;;;2.00;1.90;;;9.10;47.90;;;;;;4974026;28;20954;-71
2022/03/11 09:12:00;;;;;;;1.80;1.70;;;8.90;48.10;;;;;;4974328;28;20454;-70
2022/03/11 09:14:27;;;;;;;1.87;1.77;;;9.00;48.20;;;;;;4974218;28;20450;-71
2022/03/11 09:16:53;;;;;;;1.57;1.47;;;9.00;47.80;;;;;;4974433;28;20441;-70
2022/03/11 09:19:20;;;;;;;1.80;1.70;;;9.00;47.70;;;;;;4973929;28;20961;-71
2022/03/11 09:21:47;;;;;;;1.70;1.60;;;8.90;47.70;;;;;;4974178;28;20450;-70
2022/03/11 09:24:13;;;;;;;1.80;1.70;;;8.90;48.30;;;;;;4974133;28;20446;-72
2022/03/11 09:26:40;;;;;;;1.70;1.60;;;8.70;48.20;;;;;;4975148;28;20885;-71
2022/03/11 09:29:08;;;;;;;2.00;1.80;;;8.60;48.20;;;;;;4977575;28;21012;-70
2022/03/11 09:31:35;;;;;;;1.50;1.40;;;8.60;48.50;;;;;;4977994;28;20504;-69
2022/03/11 09:34:01;;;;;;;1.70;1.60;;;8.60;48.30;;;;;;4977693;28;20445;-69
2022/03/11 09:36:28;;;;;;;1.50;1.40;;;8.70;47.90;;;;;;4977588;28;20590;-71
2022/03/11 09:38:55;;;;;;;1.70;1.60;;;8.70;48.20;;;;;;4977644;28;20446;-69
2022/03/11 09:41:22;;;;;;;1.60;1.50;;;8.60;47.20;;;;;;4977545;28;20453;-70
2022/03/11 09:43:49;;;;;;;1.50;1.40;;;8.60;47.80;;;;;;4977527;28;20450;-69
2022/03/11 09:46:17;;;;;;;1.50;1.40;;;8.80;47.70;;;;;;4977362;28;20481;-70
2022/03/11 09:48:44;;;;;;;1.40;1.30;;;8.90;47.30;;;;;;4977421;28;20458;-71
2022/03/11 09:51:11;;;;;;;1.70;1.60;;;8.80;46.50;;;;;;4977066;28;20929;-70
2022/03/11 09:53:38;;;;;;;1.30;1.20;;;8.90;47.00;;;;;;4977861;28;20457;-69
2022/03/11 09:56:06;;;;;;;1.80;1.70;;;8.80;46.90;;;;;;4977283;28;20474;-70
2022/03/11 09:58:33;;;;;;;1.67;1.57;;;8.90;47.00;;;;;;4977195;28;20449;-70
2022/03/11 10:01:00;;;;;;;1.40;1.30;;;8.90;46.40;;;;;;4977174;28;20449;-70
2022/03/11 10:03:29;;;;;;;1.67;1.57;;;9.00;46.00;;;;;;4976924;28;20993;-70
2022/03/11 10:05:56;;;;;;;1.30;1.20;;;9.20;46.70;;;;;;4976589;28;20489;-70
2022/03/11 10:08:32;;;;;;;1.60;1.50;;;9.10;45.60;;;;;;4977010;28;20512;-70
2022/03/11 10:11:17;;;;;;;1.17;1.07;;;9.20;46.60;;;;;;4977586;28;20438;-70
2022/03/11 10:13:44;;;;;;;1.80;1.70;;;9.30;45.90;;;;;;4976792;28;20554;-70
2022/03/11 10:16:21;;;;;;;1.43;1.33;;;9.30;45.60;;;;;;5104946;23;20504;-70
2022/03/11 10:19:00;;;;;;;1.90;1.50;;;9.20;45.20;;;;;;4996320;28;20491;-70
2022/03/11 10:21:34;;;;;;;1.10;0.93;;;9.50;45.70;;;;;;4996281;28;20456;-70
2022/03/11 10:24:02;;;;;;;1.30;1.20;;;9.60;45.20;;;;;;4996343;28;20434;-70
2022/03/11 10:26:37;;;;;;;1.97;1.50;;;9.40;44.10;;;;;;4981810;28;20543;-71
2022/03/11 10:29:05;;;;;;;1.10;1.00;;;9.50;44.70;;;;;;4976801;28;20496;-71
2022/03/11 10:31:34;;;;;;;1.10;1.00;;;9.60;44.70;;;;;;4976386;28;21023;-71
2022/03/11 10:34:17;;;;;;;1.30;1.20;;;9.60;44.70;;;;;;4976650;28;20476;-71
2022/03/11 10:36:50;;;;;;;1.47;1.37;;;9.80;44.30;;;;;;4977041;28;20874;-71
2022/03/11 10:39:18;;;;;;;1.10;1.00;;;9.90;44.10;;;;;;4976117;28;20497;-71
2022/03/11 10:41:45;;;;;;;1.40;1.30;;;10.00;44.30;;;;;;4976832;28;20942;-71
2022/03/11 10:44:12;;;;;;;1.20;1.10;;;10.20;44.10;;;;;;4977017;28;20466;-71
2022/03/11 10:46:40;;;;;;;1.60;1.50;;;10.30;43.20;;;;;;4976921;28;20536;-71
2022/03/11 10:49:06;;;;;;;1.20;1.10;;;10.30;44.20;;;;;;4977275;28;20450;-70
2022/03/11 10:51:36;;;;;;;1.60;1.50;;;10.50;43.60;;;;;;4976955;28;20458;-71
2022/03/11 10:54:04;;;;;;;1.10;1.00;;;10.50;43.20;;;;;;4977395;28;20501;-71
2022/03/11 10:56:34;;;;;;;1.37;1.27;;;10.50;42.90;;;;;;4976750;28;20482;-71
2022/03/11 10:59:04;;;;;;;2.70;1.30;;;10.70;42.80;;;;;;4977626;28;20884;-71
2022/03/11 11:16:48;;;;;;;2.70;1.57;;;11.20;43.20;;;;;;4976412;28;20976;-68
2022/03/11 11:19:17;;;;;;;1.50;1.40;;;11.30;42.70;;;;;;4960950;28;20570;-68
2022/03/11 11:21:45;;;;;;;1.30;1.20;;;11.30;41.70;;;;;;4957893;29;20942;-68
2022/03/11 11:24:15;;;;;;;1.20;1.10;;;11.40;43.00;;;;;;4956961;29;20478;-68
2022/03/11 11:26:46;;;;;;;1.40;1.30;;;11.80;42.90;;;;;;4956574;29;21009;-68
2022/03/11 11:29:15;;;;;;;1.30;1.20;;;11.90;41.80;;;;;;4956837;28;20473;-68
2022/03/11 11:31:43;;;;;;;1.63;1.53;;;11.90;41.80;;;;;;4956358;29;21009;-69
2022/03/11 11:34:29;;;;;;;1.60;1.50;;;12.20;41.50;;;;;;4956817;29;20451;-69
2022/03/11 11:36:56;;;;;;;1.13;1.03;;;12.10;41.70;;;;;;4956701;29;20490;-68
2022/03/11 11:39:26;;;;;;;1.40;1.30;;;12.30;41.60;;;;;;4956837;28;20879;-69
2022/03/11 11:41:55;;;;;;;1.10;1.00;;;12.50;41.10;;;;;;4956620;29;20463;-69
2022/03/11 11:44:33;;;;;;;1.50;1.40;;;12.50;40.20;;;;;;4956571;29;20479;-70
2022/03/11 11:47:12;;;;;;;2.03;1.50;;;12.50;40.80;;;;;;4956161;29;21039;-69
2022/03/11 11:49:45;;;;;;;1.20;1.10;;;12.60;41.10;;;;;;4956286;28;20529;-69
2022/03/11 11:52:28;;;;;;;1.30;1.20;;;12.60;40.80;;;;;;4956400;29;20474;-69
2022/03/11 11:55:13;;;;;;;1.40;1.30;;;12.60;40.70;;;;;;4956330;29;20526;-70
2022/03/11 11:57:41;;;;;;;1.70;1.23;;;12.80;40.60;;;;;;4956188;28;20519;-70
2022/03/11 12:00:34;;;;;;;1.30;1.20;;;12.90;39.90;;;;;;4956557;29;20814;-69
2022/03/11 12:03:01;;;;;;;1.47;1.37;;;13.10;39.80;;;;;;4956313;29;20439;-69
2022/03/11 12:05:43;;;;;;;1.30;1.20;;;13.40;40.40;;;;;;4956158;29;20455;-69
2022/03/11 12:08:11;;;;;;;1.20;1.10;;;13.20;39.30;;;;;;4956318;28;20471;-69
2022/03/11 12:10:51;;;;;;;1.50;1.40;;;13.60;40.00;;;;;;4956230;29;20814;-70
2022/03/11 12:13:32;;;;;;;1.30;1.20;;;14.10;39.40;;;;;;4956020;29;20911;-69
2022/03/11 12:16:00;;;;;;;1.37;1.27;;;14.30;38.00;;;;;;4956001;29;20988;-69
2022/03/11 12:18:40;;;;;;;1.43;1.33;;;14.30;38.70;;;;;;4955882;28;21002;-69
2022/03/11 12:21:10;;;;;;;1.27;1.17;;;14.50;38.60;;;;;;4956905;29;20517;-69
2022/03/11 12:23:37;;;;;;;1.33;1.23;;;14.50;38.20;;;;;;4956499;29;20454;-69
2022/03/11 12:26:12;;;;;;;1.43;1.33;;;14.40;37.90;;;;;;4956298;29;20482;-69
2022/03/11 12:28:42;;;;;;;1.50;1.40;;;14.70;39.00;;;;;;4955867;28;20485;-69
2022/03/11 12:31:10;;;;;;;1.60;1.50;;;15.10;38.20;;;;;;4956100;29;20458;-69
2022/03/11 12:33:39;;;;;;;1.50;1.40;;;15.00;38.00;;;;;;4955896;29;20451;-68
2022/03/11 12:36:09;;;;;;;1.53;1.20;;;15.20;37.40;;;;;;4955676;29;20470;-68
2022/03/11 12:38:38;;;;;;;1.33;1.23;;;15.20;37.30;;;;;;4955794;28;20474;-68
2022/03/11 12:41:07;;;;;;;1.47;1.37;;;15.20;37.70;;;;;;4955523;29;21050;-69
2022/03/11 12:43:34;;;;;;;1.40;1.30;;;15.30;37.60;;;;;;4955718;29;20455;-69
2022/03/11 12:46:02;;;;;;;1.30;1.20;;;15.60;37.30;;;;;;4955712;29;20447;-68
2022/03/11 12:48:33;;;;;;;1.47;1.37;;;15.60;37.20;;;;;;4955448;28;20507;-69
2022/03/11 12:51:00;;;;;;;1.53;1.43;;;15.60;37.10;;;;;;4955763;29;20439;-68
2022/03/11 12:53:28;;;;;;;1.23;1.13;;;15.50;37.40;;;;;;4955622;29;20466;-70
2022/03/11 12:55:56;;;;;;;1.03;0.93;;;15.50;37.50;;;;;;4955539;29;20462;-70
2022/03/11 12:58:27;;;;;;;1.43;1.33;;;15.50;37.50;;;;;;4955206;28;20574;-69
2022/03/11 13:00:57;;;;;;;1.33;1.23;;;15.60;37.70;;;;;;4955784;28;20458;-69
2022/03/11 13:03:27;;;;;;;1.40;1.30;;;15.80;37.50;;;;;;4959199;29;20973;-69
2022/03/11 13:05:54;;;;;;;1.40;1.30;;;15.90;37.00;;;;;;4959755;29;20513;-69
2022/03/11 13:08:21;;;;;;;1.30;1.20;;;16.10;36.50;;;;;;4959162;28;20824;-69
2022/03/11 13:10:51;;;;;;;1.40;1.30;;;16.20;36.60;;;;;;4959265;29;20792;-69
2022/03/11 13:13:20;;;;;;;1.27;1.17;;;16.40;36.30;;;;;;4959314;29;20462;-69
2022/03/11 13:15:49;;;;;;;1.37;1.27;;;16.70;36.40;;;;;;4959983;29;20458;-69
2022/03/11 13:18:19;;;;;;;1.33;1.23;;;17.00;36.30;;;;;;4959184;28;20858;-70
2022/03/11 13:20:47;;;;;;;1.20;1.10;;;17.20;34.70;;;;;;4959879;29;20878;-69
2022/03/11 13:23:19;;;;;;;1.23;1.13;;;17.10;34.80;;;;;;4959661;29;21021;-69
2022/03/11 13:25:51;;;;;;;2.17;1.50;;;17.10;35.00;;;;;;4960030;29;20446;-69
2022/03/11 13:28:23;;;;;;;1.77;1.30;;;17.30;34.90;;;;;;4959061;28;20546;-69
2022/03/11 13:30:50;;;;;;;1.53;1.43;;;17.60;35.60;;;;;;4959132;29;20454;-69
2022/03/11 13:33:21;;;;;;;1.63;1.53;;;17.80;34.50;;;;;;4959768;29;20450;-70
2022/03/11 13:35:49;;;;;;;1.30;1.20;;;18.10;34.30;;;;;;4959509;29;20529;-70
2022/03/11 13:38:36;;;;;;;1.60;1.50;;;18.30;34.40;;;;;;4959003;28;20474;-70
2022/03/11 13:41:04;;;;;;;1.27;1.17;;;18.70;33.80;;;;;;4959625;29;20498;-69
2022/03/11 13:43:31;;;;;;;1.30;1.20;;;18.60;33.70;;;;;;4960070;29;20482;-70
2022/03/11 13:45:58;;;;;;;1.23;1.13;;;18.80;33.30;;;;;;4958508;29;20846;-70
2022/03/11 13:48:30;;;;;;;1.40;1.20;;;19.00;33.10;;;;;;4959075;28;20486;-71
2022/03/11 13:51:01;;;;;;;1.40;1.30;;;18.80;33.10;;;;;;4958807;29;20525;-70
2022/03/11 13:53:28;;;;;;;1.30;1.20;;;18.40;33.60;;;;;;4958638;29;20455;-70
2022/03/11 13:55:57;;;;;;;1.30;1.20;;;18.50;34.10;;;;;;4958643;29;20454;-70
2022/03/11 13:58:26;;;;;;;1.60;1.50;;;18.80;33.20;;;;;;4958887;28;20514;-70
2022/03/11 14:00:53;;;;;;;1.40;1.30;;;18.80;32.80;;;;;;4959270;29;21001;-70
2022/03/11 14:03:21;;;;;;;1.40;1.30;;;19.10;33.10;;;;;;4959081;29;20538;-69
2022/03/11 14:05:49;;;;;;;1.27;1.17;;;19.50;32.50;;;;;;4959061;29;20447;-69
2022/03/11 14:08:23;;;;;;;1.70;1.60;;;19.90;31.30;;;;;;4959047;28;20498;-69
2022/03/11 14:10:50;;;;;;;1.50;1.40;;;20.30;31.30;;;;;;4959211;29;20495;-69
2022/03/11 14:13:20;;;;;;;1.40;1.30;;;21.20;30.20;;;;;;4958378;28;20454;-69
2022/03/11 14:15:50;;;;;;;1.30;1.20;;;22.20;29.40;;;;;;4958760;29;20435;-69
2022/03/11 14:18:22;;;;;;;1.30;1.20;;;23.50;28.30;;;;;;4958288;28;20502;-69
2022/03/11 14:20:49;;;;;;;1.30;1.20;;;24.80;27.00;;;;;;4958593;29;20440;-69
2022/03/11 14:23:16;;;;;;;1.40;1.30;;;25.50;26.20;;;;;;4958781;29;20447;-70
2022/03/11 14:25:44;;;;;;;1.20;1.10;;;26.00;25.40;;;;;;4958151;29;20450;-70
2022/03/11 14:28:10;;;;;;;1.40;1.30;;;25.90;26.00;;;;;;4957895;28;21006;-69
2022/03/11 14:30:37;;;;;;;1.37;1.27;;;26.30;25.40;;;;;;4958040;29;20525;-70
2022/03/11 14:33:05;;;;;;;1.30;1.20;;;26.60;25.40;;;;;;4957620;29;20874;-70
2022/03/11 14:35:32;;;;;;;1.40;1.30;;;26.70;25.00;;;;;;4957841;29;20486;-70
2022/03/11 14:38:01;;;;;;;1.50;1.40;;;26.80;24.50;;;;;;4957714;28;20466;-70
2022/03/11 14:40:29;;;;;;;1.40;1.30;;;26.40;24.90;;;;;;4958015;29;20950;-69
2022/03/11 14:42:56;;;;;;;1.80;1.30;;;26.20;25.30;;;;;;4957915;29;20455;-69
2022/03/11 14:45:23;;;;;;;1.53;1.43;;;25.90;25.20;;;;;;4957861;29;20522;-70
2022/03/11 14:47:49;;;;;;;1.23;1.13;;;26.20;25.50;;;;;;4957205;28;20549;-70
2022/03/11 14:50:18;;;;;;;1.40;1.30;;;26.20;24.90;;;;;;4957478;29;20451;-69
2022/03/11 14:52:47;;;;;;;1.67;1.57;;;26.60;24.90;;;;;;4957348;29;20463;-70
2022/03/11 14:55:15;;;;;;;1.27;1.17;;;27.00;24.80;;;;;;4956895;29;20817;-69
2022/03/11 14:57:44;;;;;;;1.00;0.90;;;27.30;24.10;;;;;;4956415;28;20849;-65
2022/03/11 15:00:13;;;;;;;1.40;1.30;;;27.10;27.70;;;;;;4956778;29;20955;-65
2022/03/11 15:02:40;;;;;;;1.43;1.33;;;26.00;25.10;;;;;;4956803;29;20447;-65
2022/03/11 15:05:07;;;;;;;1.30;1.20;;;25.20;25.90;;;;;;4956661;29;20502;-66
2022/03/11 15:07:36;;;;;;;1.60;1.50;;;24.60;26.20;;;;;;4956422;28;20562;-68
2022/03/11 15:10:03;;;;;;;1.30;1.20;;;23.80;27.10;;;;;;4956545;29;20458;-69
2022/03/11 15:12:30;;;;;;;1.43;1.33;;;23.20;27.50;;;;;;4957031;29;20553;-69
2022/03/11 15:14:57;;;;;;;1.47;1.37;;;22.50;28.00;;;;;;4956506;29;20462;-69
2022/03/11 15:17:24;;;;;;;1.50;1.40;;;22.10;28.50;;;;;;4956250;29;20455;-69
2022/03/11 15:19:51;;;;;;;1.60;1.50;;;21.70;29.10;;;;;;4956071;29;20968;-69
2022/03/11 15:22:17;;;;;;;1.20;1.10;;;21.40;29.50;;;;;;4956095;29;21054;-69
2022/03/11 15:24:46;;;;;;;1.50;1.40;;;20.90;29.30;;;;;;4955743;28;20450;-68
2022/03/11 15:27:13;;;;;;;1.50;1.40;;;20.50;30.40;;;;;;4956158;29;20896;-69
2022/03/11 15:29:39;;;;;;;1.60;1.50;;;20.10;30.60;;;;;;4956140;28;20500;-68
2022/03/11 15:32:07;;;;;;;1.63;1.53;;;19.70;31.40;;;;;;4956150;29;20463;-69
2022/03/11 15:34:34;;;;;;;1.60;1.50;;;19.30;31.30;;;;;;4956120;29;20459;-69
2022/03/11 15:37:00;;;;;;;1.37;1.27;;;18.80;32.00;;;;;;4956020;29;20451;-68
2022/03/11 15:39:27;;;;;;;1.50;1.40;;;18.20;32.70;;;;;;4956000;28;20471;-69
2022/03/11 15:41:55;;;;;;;1.87;1.10;;;17.90;33.20;;;;;;4956167;29;20502;-68
2022/03/11 15:44:22;;;;;;;1.33;1.23;;;17.10;34.20;;;;;;4956095;29;20451;-68
2022/03/11 15:46:49;;;;;;;1.47;1.37;;;16.70;34.90;;;;;;4956287;29;20453;-69
2022/03/11 15:49:16;;;;;;;1.60;1.50;;;16.50;35.30;;;;;;4956478;28;20477;-68
2022/03/11 15:51:43;;;;;;;1.60;1.50;;;16.30;35.40;;;;;;4955999;29;20447;-68
2022/03/11 15:54:09;;;;;;;1.97;1.77;;;16.10;36.00;;;;;;4955804;29;20446;-68
2022/03/11 15:56:37;;;;;;;1.80;1.70;;;16.20;36.00;;;;;;4955786;29;20455;-68
2022/03/11 15:59:07;;;;;;;1.83;1.73;;;16.00;36.30;;;;;;4955401;28;20846;-68
2022/03/11 16:01:36;;;;;;;1.40;1.30;;;16.00;36.20;;;;;;4955741;29;20462;-68
2022/03/11 16:04:03;;;;;;;1.87;1.77;;;15.80;36.40;;;;;;4955315;29;20939;-68
2022/03/11 16:06:30;;;;;;;1.60;1.50;;;15.40;36.80;;;;;;4955625;29;20451;-68
2022/03/11 16:08:56;;;;;;;1.73;1.63;;;15.20;37.30;;;;;;4955415;28;20547;-68
2022/03/11 16:11:23;;;;;;;1.80;1.70;;;15.30;37.50;;;;;;4955778;29;20451;-69
2022/03/11 16:13:50;;;;;;;1.30;1.20;;;15.00;37.60;;;;;;4955239;29;20509;-68
2022/03/11 16:16:18;;;;;;;1.70;1.40;;;14.60;38.10;;;;;;4955441;29;20443;-69
2022/03/11 16:18:46;;;;;;;1.60;1.50;;;14.80;38.30;;;;;;4954515;28;20909;-68
2022/03/11 16:21:13;;;;;;;1.30;1.20;;;14.70;38.20;;;;;;4954638;29;20506;-68
2022/03/11 16:23:39;;;;;;;1.80;1.70;;;14.50;38.40;;;;;;4954722;29;20458;-69
2022/03/11 16:26:06;;;;;;;1.50;1.40;;;14.40;38.80;;;;;;4954631;29;20463;-69
2022/03/11 16:28:33;;;;;;;1.20;1.10;;;14.40;39.00;;;;;;4954244;28;20865;-69
2022/03/11 16:31:02;;;;;;;1.70;1.60;;;14.30;39.10;;;;;;4954439;29;20788;-68
2022/03/11 16:33:30;;;;;;;1.57;1.47;;;13.90;39.50;;;;;;4954430;29;20564;-68
2022/03/11 16:35:57;;;;;;;1.43;1.33;;;13.90;39.60;;;;;;4954277;29;20521;-69
2022/03/11 16:38:23;;;;;;;1.50;1.40;;;13.90;39.70;;;;;;4954431;28;20459;-68
2022/03/11 16:40:51;;;;;;;1.50;1.40;;;13.80;40.00;;;;;;4954381;29;20461;-68
2022/03/11 16:43:18;;;;;;;2.00;1.90;;;13.70;40.20;;;;;;4954451;29;20455;-68
2022/03/11 16:45:44;;;;;;;1.50;1.40;;;13.70;40.30;;;;;;4954420;29;20447;-68
2022/03/11 16:48:11;;;;;;;1.80;1.70;;;13.60;40.40;;;;;;4954220;28;20898;-69
2022/03/11 16:50:39;;;;;;;1.40;1.30;;;13.30;40.80;;;;;;4954289;29;20451;-69
2022/03/11 16:53:07;;;;;;;1.40;1.30;;;13.30;41.10;;;;;;4954286;29;20454;-69
2022/03/11 16:55:34;;;;;;;1.50;1.40;;;13.30;41.20;;;;;;4954287;29;20550;-68
2022/03/11 16:58:01;;;;;;;2.60;1.50;;;13.30;41.10;;;;;;4954240;28;20467;-68
2022/03/11 17:00:27;;;;;;;2.17;1.63;;;13.20;41.30;;;;;;4953928;29;20965;-68
2022/03/11 17:02:54;;;;;;;1.47;1.37;;;13.20;41.30;;;;;;4953863;29;20981;-69
2022/03/11 17:05:21;;;;;;;1.80;1.60;;;13.20;41.50;;;;;;4954109;29;20502;-68
2022/03/11 17:07:50;;;;;;;2.10;1.90;;;13.10;41.50;;;;;;4953904;28;20487;-69
2022/03/11 17:10:16;;;;;;;1.47;1.37;;;13.10;41.50;;;;;;4954106;29;20550;-69
2022/03/11 17:12:44;;;;;;;1.73;1.63;;;13.10;41.60;;;;;;4953801;29;20458;-68